sensor_id;sensor_type;location;lat;lon;timestamp;P1;durP1;ratioP1;P2;durP2;ratioP2
65047;SDS011;52089;51.362;-2.384;2022-08-30T00:03:56;4.00;;;1.40;;
65047;SDS011;52089;51.362;-2.384;2022-08-30T00:07:38;6.43;;;1.50;;
65047;SDS011;52089;51.362;-2.384;2022-08-30T00:11:21;6.13;;;1.30;;
65047;SDS011;52089;51.362;-2.384;2022-08-30T00:15:06;3.87;;;1.30;;
65047;SDS011;52089;51.362;-2.384;2022-08-30T00:18:52;4.67;;;1.37;;
65047;SDS011;52089;51.362;-2.384;2022-08-30T00:22:34;4.17;;;1.23;;
65047;SDS011;52089;51.362;-2.384;2022-08-30T00:26:16;4.40;;;1.30;;
65047;SDS011;52089;51.362;-2.384;2022-08-30T00:29:58;3.43;;;1.37;;
65047;SDS011;52089;51.362;-2.384;2022-08-30T00:33:40;3.40;;;1.27;;
65047;SDS011;52089;51.362;-2.384;2022-08-30T00:37:22;2.93;;;1.10;;
65047;SDS011;52089;51.362;-2.384;2022-08-30T00:41:04;2.93;;;1.30;;
65047;SDS011;52089;51.362;-2.384;2022-08-30T00:44:47;3.57;;;1.10;;
65047;SDS011;52089;51.362;-2.384;2022-08-30T00:48:30;4.93;;;1.20;;
65047;SDS011;52089;51.362;-2.384;2022-08-30T00:52:13;8.03;;;1.80;;
65047;SDS011;52089;51.362;-2.384;2022-08-30T00:55:57;6.03;;;1.20;;
65047;SDS011;52089;51.362;-2.384;2022-08-30T00:59:42;4.67;;;1.23;;
65047;SDS011;52089;51.362;-2.384;2022-08-30T01:03:27;3.23;;;1.10;;
65047;SDS011;52089;51.362;-2.384;2022-08-30T01:07:10;3.93;;;1.20;;
65047;SDS011;52089;51.362;-2.384;2022-08-30T01:10:52;4.43;;;1.33;;
65047;SDS011;52089;51.362;-2.384;2022-08-30T01:14:35;4.40;;;1.50;;
65047;SDS011;52089;51.362;-2.384;2022-08-30T01:18:19;3.50;;;1.10;;
65047;SDS011;52089;51.362;-2.384;2022-08-30T01:22:04;5.20;;;1.47;;
65047;SDS011;52089;51.362;-2.384;2022-08-30T01:25:57;4.90;;;1.30;;
65047;SDS011;52089;51.362;-2.384;2022-08-30T01:29:40;4.17;;;1.20;;
65047;SDS011;52089;51.362;-2.384;2022-08-30T01:33:25;4.73;;;1.40;;
65047;SDS011;52089;51.362;-2.384;2022-08-30T01:37:07;3.63;;;1.30;;
65047;SDS011;52089;51.362;-2.384;2022-08-30T01:40:49;4.20;;;1.20;;
65047;SDS011;52089;51.362;-2.384;2022-08-30T01:44:31;4.17;;;1.17;;
65047;SDS011;52089;51.362;-2.384;2022-08-30T01:48:13;6.30;;;1.27;;
65047;SDS011;52089;51.362;-2.384;2022-08-30T01:51:56;3.60;;;1.20;;
65047;SDS011;52089;51.362;-2.384;2022-08-30T01:55:41;5.57;;;1.60;;
65047;SDS011;52089;51.362;-2.384;2022-08-30T01:59:23;4.00;;;1.30;;
65047;SDS011;52089;51.362;-2.384;2022-08-30T02:03:05;4.90;;;1.40;;
65047;SDS011;52089;51.362;-2.384;2022-08-30T02:06:47;4.17;;;1.30;;
65047;SDS011;52089;51.362;-2.384;2022-08-30T02:10:29;3.30;;;1.20;;
65047;SDS011;52089;51.362;-2.384;2022-08-30T02:14:11;3.17;;;1.10;;
65047;SDS011;52089;51.362;-2.384;2022-08-30T02:17:53;3.60;;;1.00;;
65047;SDS011;52089;51.362;-2.384;2022-08-30T02:21:35;5.40;;;1.20;;
65047;SDS011;52089;51.362;-2.384;2022-08-30T02:25:16;4.50;;;1.37;;
65047;SDS011;52089;51.362;-2.384;2022-08-30T02:29:02;3.50;;;1.00;;
65047;SDS011;52089;51.362;-2.384;2022-08-30T02:32:46;5.00;;;1.30;;
65047;SDS011;52089;51.362;-2.384;2022-08-30T02:36:28;3.17;;;1.20;;
65047;SDS011;52089;51.362;-2.384;2022-08-30T02:40:09;2.97;;;1.20;;
65047;SDS011;52089;51.362;-2.384;2022-08-30T02:43:52;6.30;;;1.07;;
65047;SDS011;52089;51.362;-2.384;2022-08-30T02:47:38;4.33;;;1.10;;
65047;SDS011;52089;51.362;-2.384;2022-08-30T02:51:26;6.13;;;1.30;;
65047;SDS011;52089;51.362;-2.384;2022-08-30T02:55:08;3.17;;;1.10;;
65047;SDS011;52089;51.362;-2.384;2022-08-30T02:58:51;3.97;;;1.20;;
65047;SDS011;52089;51.362;-2.384;2022-08-30T03:02:33;3.23;;;1.30;;
65047;SDS011;52089;51.362;-2.384;2022-08-30T03:06:15;5.83;;;1.20;;
65047;SDS011;52089;51.362;-2.384;2022-08-30T03:09:57;2.67;;;1.30;;
65047;SDS011;52089;51.362;-2.384;2022-08-30T03:13:39;5.03;;;1.10;;
65047;SDS011;52089;51.362;-2.384;2022-08-30T03:17:21;6.90;;;1.60;;
65047;SDS011;52089;51.362;-2.384;2022-08-30T03:21:07;5.00;;;1.20;;
65047;SDS011;52089;51.362;-2.384;2022-08-30T03:24:51;2.67;;;1.20;;
65047;SDS011;52089;51.362;-2.384;2022-08-30T03:28:33;3.83;;;1.30;;
65047;SDS011;52089;51.362;-2.384;2022-08-30T03:32:15;4.63;;;1.23;;
65047;SDS011;52089;51.362;-2.384;2022-08-30T03:35:57;4.83;;;1.20;;
65047;SDS011;52089;51.362;-2.384;2022-08-30T03:39:39;4.33;;;1.10;;
65047;SDS011;52089;51.362;-2.384;2022-08-30T03:43:21;4.23;;;1.00;;
65047;SDS011;52089;51.362;-2.384;2022-08-30T03:47:09;6.33;;;1.40;;
65047;SDS011;52089;51.362;-2.384;2022-08-30T03:50:52;5.03;;;0.87;;
65047;SDS011;52089;51.362;-2.384;2022-08-30T03:54:34;2.23;;;1.00;;
65047;SDS011;52089;51.362;-2.384;2022-08-30T03:58:17;2.70;;;1.20;;
65047;SDS011;52089;51.362;-2.384;2022-08-30T04:01:59;5.23;;;1.20;;
65047;SDS011;52089;51.362;-2.384;2022-08-30T04:05:41;4.23;;;1.30;;
65047;SDS011;52089;51.362;-2.384;2022-08-30T04:09:23;3.10;;;1.10;;
65047;SDS011;52089;51.362;-2.384;2022-08-30T04:13:05;3.80;;;1.00;;
65047;SDS011;52089;51.362;-2.384;2022-08-30T04:16:47;4.43;;;1.30;;
65047;SDS011;52089;51.362;-2.384;2022-08-30T04:20:29;2.60;;;1.10;;
65047;SDS011;52089;51.362;-2.384;2022-08-30T04:24:12;3.63;;;1.33;;
65047;SDS011;52089;51.362;-2.384;2022-08-30T04:27:54;3.50;;;1.10;;
65047;SDS011;52089;51.362;-2.384;2022-08-30T04:31:36;3.27;;;1.20;;
65047;SDS011;52089;51.362;-2.384;2022-08-30T04:35:18;3.90;;;1.23;;
65047;SDS011;52089;51.362;-2.384;2022-08-30T04:39:00;3.83;;;0.93;;
65047;SDS011;52089;51.362;-2.384;2022-08-30T04:42:42;6.97;;;1.30;;
65047;SDS011;52089;51.362;-2.384;2022-08-30T04:46:28;2.50;;;0.90;;
65047;SDS011;52089;51.362;-2.384;2022-08-30T04:50:11;3.50;;;1.13;;
65047;SDS011;52089;51.362;-2.384;2022-08-30T04:53:56;2.23;;;0.93;;
65047;SDS011;52089;51.362;-2.384;2022-08-30T04:57:38;3.83;;;1.23;;
65047;SDS011;52089;51.362;-2.384;2022-08-30T05:01:22;4.37;;;1.40;;
65047;SDS011;52089;51.362;-2.384;2022-08-30T05:05:07;7.43;;;1.23;;
65047;SDS011;52089;51.362;-2.384;2022-08-30T05:09:08;7.27;;;1.17;;
65047;SDS011;52089;51.362;-2.384;2022-08-30T05:12:50;3.33;;;1.10;;
65047;SDS011;52089;51.362;-2.384;2022-08-30T05:16:32;6.10;;;1.20;;
65047;SDS011;52089;51.362;-2.384;2022-08-30T05:20:14;3.83;;;1.17;;
65047;SDS011;52089;51.362;-2.384;2022-08-30T05:23:57;4.37;;;1.10;;
65047;SDS011;52089;51.362;-2.384;2022-08-30T05:27:40;4.43;;;1.13;;
65047;SDS011;52089;51.362;-2.384;2022-08-30T05:31:30;4.27;;;1.47;;
65047;SDS011;52089;51.362;-2.384;2022-08-30T05:35:13;6.27;;;1.37;;
65047;SDS011;52089;51.362;-2.384;2022-08-30T05:38:56;5.60;;;1.73;;
65047;SDS011;52089;51.362;-2.384;2022-08-30T05:42:39;4.27;;;1.50;;
65047;SDS011;52089;51.362;-2.384;2022-08-30T05:46:28;3.90;;;1.53;;
65047;SDS011;52089;51.362;-2.384;2022-08-30T05:50:19;7.17;;;1.60;;
65047;SDS011;52089;51.362;-2.384;2022-08-30T05:54:06;7.27;;;1.60;;
65047;SDS011;52089;51.362;-2.384;2022-08-30T05:57:51;3.43;;;1.60;;
65047;SDS011;52089;51.362;-2.384;2022-08-30T06:01:38;7.07;;;3.03;;
65047;SDS011;52089;51.362;-2.384;2022-08-30T06:05:22;6.13;;;1.77;;
65047;SDS011;52089;51.362;-2.384;2022-08-30T06:09:04;5.00;;;1.50;;
65047;SDS011;52089;51.362;-2.384;2022-08-30T06:12:47;6.33;;;1.70;;
65047;SDS011;52089;51.362;-2.384;2022-08-30T06:16:29;3.67;;;1.30;;
65047;SDS011;52089;51.362;-2.384;2022-08-30T06:20:12;5.70;;;1.60;;
65047;SDS011;52089;51.362;-2.384;2022-08-30T06:23:55;3.23;;;1.30;;
65047;SDS011;52089;51.362;-2.384;2022-08-30T06:27:37;11.43;;;1.87;;
65047;SDS011;52089;51.362;-2.384;2022-08-30T06:31:20;3.83;;;1.50;;
65047;SDS011;52089;51.362;-2.384;2022-08-30T06:35:03;2.33;;;1.13;;
65047;SDS011;52089;51.362;-2.384;2022-08-30T06:38:48;5.43;;;1.60;;
65047;SDS011;52089;51.362;-2.384;2022-08-30T06:42:32;5.00;;;1.33;;
65047;SDS011;52089;51.362;-2.384;2022-08-30T06:46:15;4.87;;;1.80;;
65047;SDS011;52089;51.362;-2.384;2022-08-30T06:49:59;4.37;;;1.83;;
65047;SDS011;52089;51.362;-2.384;2022-08-30T06:53:42;4.20;;;1.20;;
65047;SDS011;52089;51.362;-2.384;2022-08-30T06:57:24;5.97;;;1.60;;
65047;SDS011;52089;51.362;-2.384;2022-08-30T07:01:06;5.50;;;1.30;;
65047;SDS011;52089;51.362;-2.384;2022-08-30T07:04:52;5.43;;;1.83;;
65047;SDS011;52089;51.362;-2.384;2022-08-30T07:08:34;6.27;;;1.80;;
65047;SDS011;52089;51.362;-2.384;2022-08-30T07:12:18;4.37;;;1.40;;
65047;SDS011;52089;51.362;-2.384;2022-08-30T07:16:00;5.67;;;1.30;;
65047;SDS011;52089;51.362;-2.384;2022-08-30T07:19:42;8.53;;;1.50;;
65047;SDS011;52089;51.362;-2.384;2022-08-30T07:23:23;4.90;;;1.47;;
65047;SDS011;52089;51.362;-2.384;2022-08-30T07:27:05;6.07;;;1.30;;
65047;SDS011;52089;51.362;-2.384;2022-08-30T07:30:47;4.43;;;1.37;;
65047;SDS011;52089;51.362;-2.384;2022-08-30T07:34:29;11.40;;;1.87;;
65047;SDS011;52089;51.362;-2.384;2022-08-30T07:38:14;5.17;;;1.40;;
65047;SDS011;52089;51.362;-2.384;2022-08-30T07:41:56;4.47;;;1.10;;
65047;SDS011;52089;51.362;-2.384;2022-08-30T07:45:37;5.13;;;1.33;;
65047;SDS011;52089;51.362;-2.384;2022-08-30T07:49:19;7.80;;;1.50;;
65047;SDS011;52089;51.362;-2.384;2022-08-30T07:53:01;3.30;;;1.07;;
65047;SDS011;52089;51.362;-2.384;2022-08-30T07:56:47;3.87;;;1.27;;
65047;SDS011;52089;51.362;-2.384;2022-08-30T08:00:28;4.50;;;1.20;;
65047;SDS011;52089;51.362;-2.384;2022-08-30T08:04:10;5.47;;;1.20;;
65047;SDS011;52089;51.362;-2.384;2022-08-30T08:07:52;4.37;;;1.27;;
65047;SDS011;52089;51.362;-2.384;2022-08-30T08:11:34;4.90;;;1.20;;
65047;SDS011;52089;51.362;-2.384;2022-08-30T08:15:16;3.17;;;1.10;;
65047;SDS011;52089;51.362;-2.384;2022-08-30T08:18:58;4.10;;;1.20;;
65047;SDS011;52089;51.362;-2.384;2022-08-30T08:22:40;5.03;;;1.00;;
65047;SDS011;52089;51.362;-2.384;2022-08-30T08:26:22;2.80;;;1.00;;
65047;SDS011;52089;51.362;-2.384;2022-08-30T08:30:04;3.83;;;1.27;;
65047;SDS011;52089;51.362;-2.384;2022-08-30T08:33:47;3.13;;;1.00;;
65047;SDS011;52089;51.362;-2.384;2022-08-30T08:37:29;3.50;;;1.00;;
65047;SDS011;52089;51.362;-2.384;2022-08-30T08:49:20;6.27;;;1.10;;
65047;SDS011;52089;51.362;-2.384;2022-08-30T08:53:08;5.10;;;0.83;;
65047;SDS011;52089;51.362;-2.384;2022-08-30T08:57:33;2.77;;;0.70;;
65047;SDS011;52089;51.362;-2.384;2022-08-30T09:01:17;3.83;;;1.00;;
65047;SDS011;52089;51.362;-2.384;2022-08-30T09:05:01;4.60;;;0.83;;
65047;SDS011;52089;51.362;-2.384;2022-08-30T09:08:44;4.30;;;1.20;;
65047;SDS011;52089;51.362;-2.384;2022-08-30T09:12:26;8.43;;;1.00;;
65047;SDS011;52089;51.362;-2.384;2022-08-30T09:16:08;3.10;;;0.90;;
65047;SDS011;52089;51.362;-2.384;2022-08-30T09:20:10;2.73;;;0.90;;
65047;SDS011;52089;51.362;-2.384;2022-08-30T09:23:55;5.80;;;0.93;;
65047;SDS011;52089;51.362;-2.384;2022-08-30T09:27:44;6.43;;;1.27;;
65047;SDS011;52089;51.362;-2.384;2022-08-30T09:35:16;4.27;;;1.00;;
65047;SDS011;52089;51.362;-2.384;2022-08-30T09:39:03;5.23;;;1.00;;
65047;SDS011;52089;51.362;-2.384;2022-08-30T09:43:48;3.97;;;0.98;;
65047;SDS011;52089;51.362;-2.384;2022-08-30T09:47:05;2.38;;;0.85;;
65047;SDS011;52089;51.362;-2.384;2022-08-30T10:06:50;4.22;;;1.05;;
65047;SDS011;52089;51.362;-2.384;2022-08-30T10:18:31;3.70;;;1.00;;
65047;SDS011;52089;51.362;-2.384;2022-08-30T10:22:35;6.40;;;1.58;;
65047;SDS011;52089;51.362;-2.384;2022-08-30T10:26:32;10.98;;;3.33;;
65047;SDS011;52089;51.362;-2.384;2022-08-30T10:30:19;6.90;;;1.42;;
65047;SDS011;52089;51.362;-2.384;2022-08-30T10:34:05;5.65;;;1.08;;
65047;SDS011;52089;51.362;-2.384;2022-08-30T10:38:03;3.73;;;0.93;;
65047;SDS011;52089;51.362;-2.384;2022-08-30T10:41:57;9.00;;;0.90;;
65047;SDS011;52089;51.362;-2.384;2022-08-30T10:45:47;3.38;;;0.88;;
65047;SDS011;52089;51.362;-2.384;2022-08-30T10:49:38;7.90;;;0.95;;
65047;SDS011;52089;51.362;-2.384;2022-08-30T10:53:38;5.35;;;0.70;;
65047;SDS011;52089;51.362;-2.384;2022-08-30T10:57:24;4.10;;;1.00;;
65047;SDS011;52089;51.362;-2.384;2022-08-30T11:02:09;3.35;;;1.13;;
65047;SDS011;52089;51.362;-2.384;2022-08-30T11:17:07;4.05;;;0.90;;
65047;SDS011;52089;51.362;-2.384;2022-08-30T11:21:30;6.38;;;0.98;;
65047;SDS011;52089;51.362;-2.384;2022-08-30T11:26:04;6.57;;;1.30;;
65047;SDS011;52089;51.362;-2.384;2022-08-30T11:29:42;3.47;;;0.73;;
65047;SDS011;52089;51.362;-2.384;2022-08-30T11:33:29;9.07;;;1.33;;
65047;SDS011;52089;51.362;-2.384;2022-08-30T12:05:48;68.28;;;6.25;;
65047;SDS011;52089;51.362;-2.384;2022-08-30T12:17:20;10.70;;;1.60;;
65047;SDS011;52089;51.362;-2.384;2022-08-30T12:25:15;5.00;;;0.95;;
65047;SDS011;52089;51.362;-2.384;2022-08-30T12:32:49;5.05;;;0.98;;
65047;SDS011;52089;51.362;-2.384;2022-08-30T12:36:35;5.22;;;1.10;;
65047;SDS011;52089;51.362;-2.384;2022-08-30T12:40:21;8.80;;;1.65;;
65047;SDS011;52089;51.362;-2.384;2022-08-30T12:44:05;2.92;;;1.05;;
65047;SDS011;52089;51.362;-2.384;2022-08-30T12:47:56;5.47;;;0.90;;
65047;SDS011;52089;51.362;-2.384;2022-08-30T12:51:42;3.95;;;0.98;;
65047;SDS011;52089;51.362;-2.384;2022-08-30T12:55:26;3.35;;;0.88;;
65047;SDS011;52089;51.362;-2.384;2022-08-30T12:59:36;5.65;;;1.00;;
65047;SDS011;52089;51.362;-2.384;2022-08-30T13:07:04;3.33;;;1.00;;
65047;SDS011;52089;51.362;-2.384;2022-08-30T13:14:32;4.43;;;2.80;;
65047;SDS011;52089;51.362;-2.384;2022-08-30T13:26:12;4.10;;;0.98;;
65047;SDS011;52089;51.362;-2.384;2022-08-30T13:30:21;1.80;;;0.80;;
65047;SDS011;52089;51.362;-2.384;2022-08-30T13:34:03;3.88;;;1.25;;
65047;SDS011;52089;51.362;-2.384;2022-08-30T13:37:45;4.03;;;1.33;;
65047;SDS011;52089;51.362;-2.384;2022-08-30T13:41:31;4.50;;;2.33;;
65047;SDS011;52089;51.362;-2.384;2022-08-30T13:45:15;2.97;;;0.82;;
65047;SDS011;52089;51.362;-2.384;2022-08-30T13:49:19;3.78;;;0.80;;
65047;SDS011;52089;51.362;-2.384;2022-08-30T13:53:25;3.35;;;0.80;;
65047;SDS011;52089;51.362;-2.384;2022-08-30T13:57:28;4.93;;;0.85;;
65047;SDS011;52089;51.362;-2.384;2022-08-30T14:01:31;3.47;;;0.80;;
65047;SDS011;52089;51.362;-2.384;2022-08-30T14:05:34;3.50;;;1.17;;
65047;SDS011;52089;51.362;-2.384;2022-08-30T14:09:37;3.03;;;0.70;;
65047;SDS011;52089;51.362;-2.384;2022-08-30T14:13:19;2.83;;;0.80;;
65047;SDS011;52089;51.362;-2.384;2022-08-30T14:17:02;2.50;;;0.82;;
65047;SDS011;52089;51.362;-2.384;2022-08-30T14:20:44;2.42;;;0.70;;
65047;SDS011;52089;51.362;-2.384;2022-08-30T14:24:27;4.70;;;0.80;;
65047;SDS011;52089;51.362;-2.384;2022-08-30T14:28:09;5.78;;;1.50;;
65047;SDS011;52089;51.362;-2.384;2022-08-30T14:31:51;2.60;;;1.00;;
65047;SDS011;52089;51.362;-2.384;2022-08-30T14:35:33;2.38;;;0.98;;
65047;SDS011;52089;51.362;-2.384;2022-08-30T14:39:17;2.70;;;0.85;;
65047;SDS011;52089;51.362;-2.384;2022-08-30T14:43:00;2.78;;;1.13;;
65047;SDS011;52089;51.362;-2.384;2022-08-30T14:46:42;2.97;;;0.90;;
65047;SDS011;52089;51.362;-2.384;2022-08-30T14:50:24;5.20;;;1.40;;
65047;SDS011;52089;51.362;-2.384;2022-08-30T14:54:08;2.97;;;1.00;;
65047;SDS011;52089;51.362;-2.384;2022-08-30T14:57:50;7.38;;;3.70;;
65047;SDS011;52089;51.362;-2.384;2022-08-30T15:01:32;5.68;;;3.50;;
65047;SDS011;52089;51.362;-2.384;2022-08-30T15:05:17;3.20;;;1.20;;
65047;SDS011;52089;51.362;-2.384;2022-08-30T15:09:00;16.85;;;1.67;;
65047;SDS011;52089;51.362;-2.384;2022-08-30T15:12:42;8.20;;;1.55;;
65047;SDS011;52089;51.362;-2.384;2022-08-30T15:16:28;27.70;;;3.10;;
65047;SDS011;52089;51.362;-2.384;2022-08-30T15:20:12;23.05;;;2.20;;
65047;SDS011;52089;51.362;-2.384;2022-08-30T15:23:55;2.22;;;1.08;;
65047;SDS011;52089;51.362;-2.384;2022-08-30T15:27:38;27.52;;;2.75;;
65047;SDS011;52089;51.362;-2.384;2022-08-30T15:31:21;27.35;;;3.38;;
65047;SDS011;52089;51.362;-2.384;2022-08-30T15:35:05;71.95;;;7.47;;
65047;SDS011;52089;51.362;-2.384;2022-08-30T15:38:48;61.60;;;6.55;;
65047;SDS011;52089;51.362;-2.384;2022-08-30T15:42:30;98.75;;;9.85;;
65047;SDS011;52089;51.362;-2.384;2022-08-30T15:50:10;10.27;;;2.25;;
65047;SDS011;52089;51.362;-2.384;2022-08-30T15:53:52;6.15;;;1.20;;
65047;SDS011;52089;51.362;-2.384;2022-08-30T15:57:34;6.72;;;0.95;;
65047;SDS011;52089;51.362;-2.384;2022-08-30T16:01:16;43.33;;;6.45;;
65047;SDS011;52089;51.362;-2.384;2022-08-30T16:05:00;5.60;;;1.55;;
65047;SDS011;52089;51.362;-2.384;2022-08-30T16:08:42;5.10;;;0.90;;
65047;SDS011;52089;51.362;-2.384;2022-08-30T16:12:26;23.55;;;2.35;;
65047;SDS011;52089;51.362;-2.384;2022-08-30T16:16:08;71.50;;;6.38;;
65047;SDS011;52089;51.362;-2.384;2022-08-30T16:19:51;3.47;;;1.17;;
65047;SDS011;52089;51.362;-2.384;2022-08-30T16:23:39;36.75;;;3.30;;
65047;SDS011;52089;51.362;-2.384;2022-08-30T16:27:23;25.17;;;2.78;;
65047;SDS011;52089;51.362;-2.384;2022-08-30T16:31:05;18.75;;;1.98;;
65047;SDS011;52089;51.362;-2.384;2022-08-30T16:34:47;38.78;;;4.53;;
65047;SDS011;52089;51.362;-2.384;2022-08-30T16:38:30;183.35;;;17.08;;
65047;SDS011;52089;51.362;-2.384;2022-08-30T16:42:12;61.03;;;6.18;;
65047;SDS011;52089;51.362;-2.384;2022-08-30T16:46:01;158.77;;;14.73;;
65047;SDS011;52089;51.362;-2.384;2022-08-30T16:49:46;86.50;;;9.18;;
65047;SDS011;52089;51.362;-2.384;2022-08-30T16:53:30;92.30;;;9.65;;
65047;SDS011;52089;51.362;-2.384;2022-08-30T16:57:12;33.03;;;3.30;;
65047;SDS011;52089;51.362;-2.384;2022-08-30T17:00:54;7.50;;;1.17;;
65047;SDS011;52089;51.362;-2.384;2022-08-30T17:04:36;50.88;;;5.45;;
65047;SDS011;52089;51.362;-2.384;2022-08-30T17:08:18;187.60;;;14.38;;
65047;SDS011;52089;51.362;-2.384;2022-08-30T17:11:59;161.00;;;15.10;;
65047;SDS011;52089;51.362;-2.384;2022-08-30T17:15:44;206.77;;;18.00;;
65047;SDS011;52089;51.362;-2.384;2022-08-30T17:19:26;112.65;;;9.25;;
65047;SDS011;52089;51.362;-2.384;2022-08-30T17:23:09;18.50;;;2.17;;
65047;SDS011;52089;51.362;-2.384;2022-08-30T17:26:51;8.20;;;1.15;;
65047;SDS011;52089;51.362;-2.384;2022-08-30T17:30:34;3.65;;;0.93;;
65047;SDS011;52089;51.362;-2.384;2022-08-30T17:34:18;24.95;;;3.03;;
65047;SDS011;52089;51.362;-2.384;2022-08-30T17:38:02;40.65;;;5.00;;
65047;SDS011;52089;51.362;-2.384;2022-08-30T17:41:44;6.40;;;1.38;;
65047;SDS011;52089;51.362;-2.384;2022-08-30T17:45:30;9.77;;;1.70;;
65047;SDS011;52089;51.362;-2.384;2022-08-30T17:49:13;6.07;;;1.08;;
65047;SDS011;52089;51.362;-2.384;2022-08-30T17:52:55;8.85;;;3.50;;
65047;SDS011;52089;51.362;-2.384;2022-08-30T17:56:38;3.25;;;1.10;;
65047;SDS011;52089;51.362;-2.384;2022-08-30T18:00:20;1.92;;;0.68;;
65047;SDS011;52089;51.362;-2.384;2022-08-30T18:04:02;5.25;;;1.08;;
65047;SDS011;52089;51.362;-2.384;2022-08-30T18:07:46;6.53;;;1.27;;
65047;SDS011;52089;51.362;-2.384;2022-08-30T18:11:28;4.03;;;0.73;;
65047;SDS011;52089;51.362;-2.384;2022-08-30T18:15:10;4.43;;;1.00;;
65047;SDS011;52089;51.362;-2.384;2022-08-30T18:18:55;9.43;;;5.00;;
65047;SDS011;52089;51.362;-2.384;2022-08-30T18:22:37;3.30;;;1.20;;
65047;SDS011;52089;51.362;-2.384;2022-08-30T18:26:20;4.30;;;1.13;;
65047;SDS011;52089;51.362;-2.384;2022-08-30T18:30:05;2.00;;;0.90;;
65047;SDS011;52089;51.362;-2.384;2022-08-30T18:33:52;3.40;;;0.70;;
65047;SDS011;52089;51.362;-2.384;2022-08-30T18:37:34;6.10;;;0.90;;
65047;SDS011;52089;51.362;-2.384;2022-08-30T18:41:15;2.60;;;0.70;;
65047;SDS011;52089;51.362;-2.384;2022-08-30T18:44:57;4.53;;;1.10;;
65047;SDS011;52089;51.362;-2.384;2022-08-30T18:48:54;4.30;;;0.93;;
65047;SDS011;52089;51.362;-2.384;2022-08-30T18:52:37;4.07;;;0.90;;
65047;SDS011;52089;51.362;-2.384;2022-08-30T18:56:20;2.30;;;0.80;;
65047;SDS011;52089;51.362;-2.384;2022-08-30T19:00:08;2.23;;;0.70;;
65047;SDS011;52089;51.362;-2.384;2022-08-30T19:03:52;7.27;;;1.03;;
65047;SDS011;52089;51.362;-2.384;2022-08-30T19:07:34;4.90;;;1.33;;
65047;SDS011;52089;51.362;-2.384;2022-08-30T19:11:19;2.10;;;1.17;;
65047;SDS011;52089;51.362;-2.384;2022-08-30T19:15:03;3.07;;;0.80;;
65047;SDS011;52089;51.362;-2.384;2022-08-30T19:18:51;3.50;;;1.00;;
65047;SDS011;52089;51.362;-2.384;2022-08-30T19:22:33;3.17;;;0.70;;
65047;SDS011;52089;51.362;-2.384;2022-08-30T19:26:35;2.30;;;0.70;;
65047;SDS011;52089;51.362;-2.384;2022-08-30T19:30:20;2.33;;;0.73;;
65047;SDS011;52089;51.362;-2.384;2022-08-30T19:34:10;4.33;;;0.70;;
65047;SDS011;52089;51.362;-2.384;2022-08-30T19:37:53;2.53;;;0.70;;
65047;SDS011;52089;51.362;-2.384;2022-08-30T19:41:36;3.27;;;0.70;;
65047;SDS011;52089;51.362;-2.384;2022-08-30T19:45:19;2.33;;;0.80;;
65047;SDS011;52089;51.362;-2.384;2022-08-30T19:49:03;5.53;;;0.77;;
65047;SDS011;52089;51.362;-2.384;2022-08-30T19:52:47;4.90;;;0.80;;
65047;SDS011;52089;51.362;-2.384;2022-08-30T19:56:34;2.57;;;0.67;;
65047;SDS011;52089;51.362;-2.384;2022-08-30T20:00:16;3.60;;;0.80;;
65047;SDS011;52089;51.362;-2.384;2022-08-30T20:03:58;2.53;;;1.30;;
65047;SDS011;52089;51.362;-2.384;2022-08-30T20:07:42;6.77;;;3.80;;
65047;SDS011;52089;51.362;-2.384;2022-08-30T20:11:24;5.40;;;1.00;;
65047;SDS011;52089;51.362;-2.384;2022-08-30T20:15:06;1.80;;;0.80;;
65047;SDS011;52089;51.362;-2.384;2022-08-30T20:18:51;3.37;;;0.77;;
65047;SDS011;52089;51.362;-2.384;2022-08-30T20:22:33;4.50;;;0.90;;
65047;SDS011;52089;51.362;-2.384;2022-08-30T20:26:16;3.80;;;0.93;;
65047;SDS011;52089;51.362;-2.384;2022-08-30T20:29:58;4.83;;;0.73;;
65047;SDS011;52089;51.362;-2.384;2022-08-30T20:33:39;5.57;;;1.03;;
65047;SDS011;52089;51.362;-2.384;2022-08-30T20:37:21;4.20;;;1.00;;
65047;SDS011;52089;51.362;-2.384;2022-08-30T20:41:07;1.80;;;0.67;;
65047;SDS011;52089;51.362;-2.384;2022-08-30T20:44:51;2.30;;;0.90;;
65047;SDS011;52089;51.362;-2.384;2022-08-30T20:48:37;7.37;;;0.90;;
65047;SDS011;52089;51.362;-2.384;2022-08-30T20:52:20;3.80;;;1.10;;
65047;SDS011;52089;51.362;-2.384;2022-08-30T20:56:02;3.50;;;0.73;;
65047;SDS011;52089;51.362;-2.384;2022-08-30T20:59:45;2.17;;;0.77;;
65047;SDS011;52089;51.362;-2.384;2022-08-30T21:03:26;4.60;;;1.13;;
65047;SDS011;52089;51.362;-2.384;2022-08-30T21:07:12;4.20;;;1.30;;
65047;SDS011;52089;51.362;-2.384;2022-08-30T21:10:55;3.90;;;0.80;;
65047;SDS011;52089;51.362;-2.384;2022-08-30T21:14:37;6.37;;;1.13;;
65047;SDS011;52089;51.362;-2.384;2022-08-30T21:18:19;3.23;;;1.20;;
65047;SDS011;52089;51.362;-2.384;2022-08-30T21:22:01;5.70;;;1.27;;
65047;SDS011;52089;51.362;-2.384;2022-08-30T21:25:43;4.47;;;0.87;;
65047;SDS011;52089;51.362;-2.384;2022-08-30T21:29:26;3.90;;;1.33;;
65047;SDS011;52089;51.362;-2.384;2022-08-30T21:33:08;6.60;;;1.07;;
65047;SDS011;52089;51.362;-2.384;2022-08-30T21:36:50;6.07;;;1.07;;
65047;SDS011;52089;51.362;-2.384;2022-08-30T21:40:32;6.33;;;1.30;;
65047;SDS011;52089;51.362;-2.384;2022-08-30T21:44:16;6.97;;;4.03;;
65047;SDS011;52089;51.362;-2.384;2022-08-30T21:48:00;6.37;;;1.27;;
65047;SDS011;52089;51.362;-2.384;2022-08-30T21:51:42;5.67;;;1.20;;
65047;SDS011;52089;51.362;-2.384;2022-08-30T21:55:26;5.23;;;1.40;;
65047;SDS011;52089;51.362;-2.384;2022-08-30T21:59:08;2.93;;;1.20;;
65047;SDS011;52089;51.362;-2.384;2022-08-30T22:02:51;7.33;;;1.33;;
65047;SDS011;52089;51.362;-2.384;2022-08-30T22:06:34;4.03;;;1.10;;
65047;SDS011;52089;51.362;-2.384;2022-08-30T22:10:17;4.60;;;1.30;;
65047;SDS011;52089;51.362;-2.384;2022-08-30T22:14:01;6.07;;;1.50;;
65047;SDS011;52089;51.362;-2.384;2022-08-30T22:17:44;7.17;;;1.23;;
65047;SDS011;52089;51.362;-2.384;2022-08-30T22:21:27;3.63;;;0.90;;
65047;SDS011;52089;51.362;-2.384;2022-08-30T22:25:11;4.43;;;1.07;;
65047;SDS011;52089;51.362;-2.384;2022-08-30T22:28:53;11.80;;;5.17;;
65047;SDS011;52089;51.362;-2.384;2022-08-30T22:32:35;5.53;;;1.00;;
65047;SDS011;52089;51.362;-2.384;2022-08-30T22:36:19;3.10;;;1.10;;
65047;SDS011;52089;51.362;-2.384;2022-08-30T22:40:13;3.70;;;1.00;;
65047;SDS011;52089;51.362;-2.384;2022-08-30T22:43:55;5.70;;;1.30;;
65047;SDS011;52089;51.362;-2.384;2022-08-30T22:47:37;5.23;;;0.90;;
65047;SDS011;52089;51.362;-2.384;2022-08-30T22:51:19;2.73;;;0.97;;
65047;SDS011;52089;51.362;-2.384;2022-08-30T22:55:02;4.87;;;1.10;;
65047;SDS011;52089;51.362;-2.384;2022-08-30T22:58:44;5.63;;;1.17;;
65047;SDS011;52089;51.362;-2.384;2022-08-30T23:02:26;5.03;;;1.23;;
65047;SDS011;52089;51.362;-2.384;2022-08-30T23:06:08;8.67;;;1.87;;
65047;SDS011;52089;51.362;-2.384;2022-08-30T23:09:50;5.90;;;1.40;;
65047;SDS011;52089;51.362;-2.384;2022-08-30T23:13:32;4.27;;;1.90;;
65047;SDS011;52089;51.362;-2.384;2022-08-30T23:17:14;13.63;;;8.50;;
65047;SDS011;52089;51.362;-2.384;2022-08-30T23:21:03;5.90;;;1.97;;
65047;SDS011;52089;51.362;-2.384;2022-08-30T23:24:51;4.50;;;1.50;;
65047;SDS011;52089;51.362;-2.384;2022-08-30T23:28:56;5.23;;;2.33;;
65047;SDS011;52089;51.362;-2.384;2022-08-30T23:32:56;8.70;;;3.50;;
65047;SDS011;52089;51.362;-2.384;2022-08-30T23:36:57;6.80;;;1.77;;
65047;SDS011;52089;51.362;-2.384;2022-08-30T23:44:58;5.90;;;1.70;;
65047;SDS011;52089;51.362;-2.384;2022-08-30T23:48:58;5.90;;;1.53;;
65047;SDS011;52089;51.362;-2.384;2022-08-30T23:52:59;4.47;;;1.33;;
65047;SDS011;52089;51.362;-2.384;2022-08-30T23:57:00;3.35;;;1.20;;
